Aviation Digital Data Service (ADDS)

Output produced by METARs form (1654 UTC 16 June 2019)
found at http://www.aviationweather.gov/metar/data/
 
METAR text: KVBG 161643Z AUTO 34010KT 10SM OVC010 13/11 A2994 RMK AO2 SLP142
Conditions at: KVBG (VANDENBERG AFB , CA, US) observed 1643 UTC 16 June 2019
Temperature: 13.0°C (55°F)
Dewpoint: 11.0°C (52°F) [RH = 88%]
Pressure (altimeter): 29.94 inches Hg (1014.0 mb)
[Sea-level pressure: 1014.2 mb]
Winds: from the NNW (340 degrees) at 12 MPH (10 knots; 5.1 m/s)
Visibility: 10 or more miles (16+ km)
Ceiling: 1000 feet AGL
Clouds: overcast cloud deck at 1000 feet AGL
Weather: automated observation with no human augmentation;
there may or may not be significant weather present at this time

METAR text: KVBG 161558Z AUTO 36008KT 10SM OVC009 12/11 A2994 RMK AO2 SLP142 T01220112
Conditions at: KVBG (VANDENBERG AFB , CA, US) observed 1558 UTC 16 June 2019
Temperature: 12.2°C (54°F)
Dewpoint: 11.2°C (52°F) [RH = 94%]
Pressure (altimeter): 29.94 inches Hg (1014.0 mb)
[Sea-level pressure: 1014.2 mb]
Winds: from the N (360 degrees) at 9 MPH (8 knots; 4.1 m/s)
Visibility: 10 or more miles (16+ km)
Ceiling: 900 feet AGL
Clouds: overcast cloud deck at 900 feet AGL
Weather: automated observation with no human augmentation;
there may or may not be significant weather present at this time

METAR text: KVBG 161538Z AUTO 01010KT 10SM OVC008 12/11 A2994 RMK AO2 SLP142
Conditions at: KVBG (VANDENBERG AFB , CA, US) observed 1538 UTC 16 June 2019
Temperature: 12.0°C (54°F)
Dewpoint: 11.0°C (52°F) [RH = 94%]
Pressure (altimeter): 29.94 inches Hg (1014.0 mb)
[Sea-level pressure: 1014.2 mb]
Winds: from the N (10 degrees) at 12 MPH (10 knots; 5.1 m/s)
Visibility: 10 or more miles (16+ km)
Ceiling: 800 feet AGL
Clouds: overcast cloud deck at 800 feet AGL
Weather: automated observation with no human augmentation;
there may or may not be significant weather present at this time

METAR text: KVBG 161518Z AUTO 36008KT 10SM OVC007 12/11 A2994 RMK AO2 SLP142
Conditions at: KVBG (VANDENBERG AFB , CA, US) observed 1518 UTC 16 June 2019
Temperature: 12.0°C (54°F)
Dewpoint: 11.0°C (52°F) [RH = 94%]
Pressure (altimeter): 29.94 inches Hg (1014.0 mb)
[Sea-level pressure: 1014.2 mb]
Winds: from the N (360 degrees) at 9 MPH (8 knots; 4.1 m/s)
Visibility: 10 or more miles (16+ km)
Ceiling: 700 feet AGL
Clouds: overcast cloud deck at 700 feet AGL
Weather: automated observation with no human augmentation;
there may or may not be significant weather present at this time

METAR text: KVBG 161458Z AUTO 02009KT 10SM BKN006 12/11 A2995 RMK AO2 SLP145 60000 52006
Conditions at: KVBG (VANDENBERG AFB , CA, US) observed 1458 UTC 16 June 2019
Temperature: 12.0°C (54°F)
Dewpoint: 11.0°C (52°F) [RH = 94%]
Pressure (altimeter): 29.95 inches Hg (1014.3 mb)
[Sea-level pressure: 1014.5 mb]
Winds: from the NNE (20 degrees) at 10 MPH (9 knots; 4.6 m/s)
Visibility: 10 or more miles (16+ km)
Ceiling: 600 feet AGL
Clouds: broken clouds at 600 feet AGL
Weather: automated observation with no human augmentation;
there may or may not be significant weather present at this time

METAR text: KVBG 161453Z AUTO 01008KT 9SM BKN007 12/11 A2994 RMK AO2 SLP142
Conditions at: KVBG (VANDENBERG AFB , CA, US) observed 1453 UTC 16 June 2019
Temperature: 12.0°C (54°F)
Dewpoint: 11.0°C (52°F) [RH = 94%]
Pressure (altimeter): 29.94 inches Hg (1014.0 mb)
[Sea-level pressure: 1014.2 mb]
Winds: from the N (10 degrees) at 9 MPH (8 knots; 4.1 m/s)
Visibility: 9 miles (14 km)
Ceiling: 700 feet AGL
Clouds: broken clouds at 700 feet AGL
Weather: automated observation with no human augmentation;
there may or may not be significant weather present at this time

METAR text: KVBG 161443Z AUTO 01007KT 9SM BKN006 11/11 A2994 RMK AO2 CIG 006V008 SLP142
Conditions at: KVBG (VANDENBERG AFB , CA, US) observed 1443 UTC 16 June 2019
Temperature: 11.0°C (52°F)
Dewpoint: 11.0°C (52°F) [RH = 100%]
Pressure (altimeter): 29.94 inches Hg (1014.0 mb)
[Sea-level pressure: 1014.2 mb]
Winds: from the N (10 degrees) at 8 MPH (7 knots; 3.6 m/s)
Visibility: 9 miles (14 km)
Ceiling: 600 feet AGL
Clouds: broken clouds at 600 feet AGL
Weather: automated observation with no human augmentation;
there may or may not be significant weather present at this time

METAR text: KVBG 161428Z AUTO 01008KT 10SM OVC008 11/11 A2994 RMK AO2 SLP142
Conditions at: KVBG (VANDENBERG AFB , CA, US) observed 1428 UTC 16 June 2019
Temperature: 11.0°C (52°F)
Dewpoint: 11.0°C (52°F) [RH = 100%]
Pressure (altimeter): 29.94 inches Hg (1014.0 mb)
[Sea-level pressure: 1014.2 mb]
Winds: from the N (10 degrees) at 9 MPH (8 knots; 4.1 m/s)
Visibility: 10 or more miles (16+ km)
Ceiling: 800 feet AGL
Clouds: overcast cloud deck at 800 feet AGL
Weather: automated observation with no human augmentation;
there may or may not be significant weather present at this time

METAR text: KVBG 161358Z AUTO 01010KT 10SM OVC007 11/11 A2994 RMK AO2 SLP142 T01110108
Conditions at: KVBG (VANDENBERG AFB , CA, US) observed 1358 UTC 16 June 2019
Temperature: 11.1°C (52°F)
Dewpoint: 10.8°C (51°F) [RH = 98%]
Pressure (altimeter): 29.94 inches Hg (1014.0 mb)
[Sea-level pressure: 1014.2 mb]
Winds: from the N (10 degrees) at 12 MPH (10 knots; 5.1 m/s)
Visibility: 10 or more miles (16+ km)
Ceiling: 700 feet AGL
Clouds: overcast cloud deck at 700 feet AGL
Weather: automated observation with no human augmentation;
there may or may not be significant weather present at this time

METAR text: KVBG 161338Z AUTO 01011KT 10SM OVC007 11/11 A2994 RMK AO2 SLP142
Conditions at: KVBG (VANDENBERG AFB , CA, US) observed 1338 UTC 16 June 2019
Temperature: 11.0°C (52°F)
Dewpoint: 11.0°C (52°F) [RH = 100%]
Pressure (altimeter): 29.94 inches Hg (1014.0 mb)
[Sea-level pressure: 1014.2 mb]
Winds: from the N (10 degrees) at 13 MPH (11 knots; 5.7 m/s)
Visibility: 10 or more miles (16+ km)
Ceiling: 700 feet AGL
Clouds: overcast cloud deck at 700 feet AGL
Weather: automated observation with no human augmentation;
there may or may not be significant weather present at this time

METAR text: KVBG 161308Z AUTO 36009KT 8SM OVC006 11/11 A2993 RMK AO2 SLP138
Conditions at: KVBG (VANDENBERG AFB , CA, US) observed 1308 UTC 16 June 2019
Temperature: 11.0°C (52°F)
Dewpoint: 11.0°C (52°F) [RH = 100%]
Pressure (altimeter): 29.93 inches Hg (1013.6 mb)
[Sea-level pressure: 1013.8 mb]
Winds: from the N (360 degrees) at 10 MPH (9 knots; 4.6 m/s)
Visibility: 8 miles (13 km)
Ceiling: 600 feet AGL
Clouds: overcast cloud deck at 600 feet AGL
Weather: automated observation with no human augmentation;
there may or may not be significant weather present at this time

METAR text: KVBG 161258Z AUTO 35008KT 9SM OVC005 11/11 A2993 RMK AO2 RAE15 SLP138 P0000 T01100107
Conditions at: KVBG (VANDENBERG AFB , CA, US) observed 1258 UTC 16 June 2019
Temperature: 11.0°C (52°F)
Dewpoint: 10.7°C (51°F) [RH = 98%]
Pressure (altimeter): 29.93 inches Hg (1013.6 mb)
[Sea-level pressure: 1013.8 mb]
Winds: from the N (350 degrees) at 9 MPH (8 knots; 4.1 m/s)
Visibility: 9 miles (14 km)
Ceiling: 500 feet AGL
Clouds: overcast cloud deck at 500 feet AGL
Weather: automated observation with no human augmentation;
there may or may not be significant weather present at this time

METAR text: KVBG 161220Z AUTO 35009KT 7SM OVC005 11/11 A2993 RMK AO2 RAE15 SLP138
Conditions at: KVBG (VANDENBERG AFB , CA, US) observed 1220 UTC 16 June 2019
Temperature: 11.0°C (52°F)
Dewpoint: 11.0°C (52°F) [RH = 100%]
Pressure (altimeter): 29.93 inches Hg (1013.6 mb)
[Sea-level pressure: 1013.8 mb]
Winds: from the N (350 degrees) at 10 MPH (9 knots; 4.6 m/s)
Visibility: 7 miles (11 km)
Ceiling: 500 feet AGL
Clouds: overcast cloud deck at 500 feet AGL
Weather: automated observation with no human augmentation;
there may or may not be significant weather present at this time

METAR text: KVBG 161215Z AUTO 35008KT 7SM OVC004 11/11 A2993 RMK AO2 RAE15 SLP138
Conditions at: KVBG (VANDENBERG AFB , CA, US) observed 1215 UTC 16 June 2019
Temperature: 11.0°C (52°F)
Dewpoint: 11.0°C (52°F) [RH = 100%]
Pressure (altimeter): 29.93 inches Hg (1013.6 mb)
[Sea-level pressure: 1013.8 mb]
Winds: from the N (350 degrees) at 9 MPH (8 knots; 4.1 m/s)
Visibility: 7 miles (11 km)
Ceiling: 400 feet AGL
Clouds: overcast cloud deck at 400 feet AGL
Weather: automated observation with no human augmentation;
there may or may not be significant weather present at this time

METAR text: KVBG 161158Z AUTO 36009KT 8SM -RA OVC004 11/11 A2993 RMK AO2 RAB18E34RAB37E39RAB40 SLP138 P0001 60001 70001 T01130110 10120 20113 55003
Conditions at: KVBG (VANDENBERG AFB , CA, US) observed 1158 UTC 16 June 2019
Temperature: 11.3°C (52°F)
Dewpoint: 11.0°C (52°F) [RH = 98%]
Pressure (altimeter): 29.93 inches Hg (1013.6 mb)
[Sea-level pressure: 1013.8 mb]
Winds: from the N (360 degrees) at 10 MPH (9 knots; 4.6 m/s)
Visibility: 8 miles (13 km)
Ceiling: 400 feet AGL
Clouds: overcast cloud deck at 400 feet AGL
Weather: -RA  (light rain)

METAR text: KVBG 161145Z AUTO 01007KT 7SM -RA OVC004 11/11 A2993 RMK AO2 RAB18E34RAB37E39RAB40 SLP138
Conditions at: KVBG (VANDENBERG AFB , CA, US) observed 1145 UTC 16 June 2019
Temperature: 11.0°C (52°F)
Dewpoint: 11.0°C (52°F) [RH = 100%]
Pressure (altimeter): 29.93 inches Hg (1013.6 mb)
[Sea-level pressure: 1013.8 mb]
Winds: from the N (10 degrees) at 8 MPH (7 knots; 3.6 m/s)
Visibility: 7 miles (11 km)
Ceiling: 400 feet AGL
Clouds: overcast cloud deck at 400 feet AGL
Weather: -RA  (light rain)

METAR text: KVBG 161140Z AUTO 36006KT 8SM -RA OVC005 11/11 A2993 RMK AO2 RAB18E34RAB37E39RAB40 SLP138
Conditions at: KVBG (VANDENBERG AFB , CA, US) observed 1140 UTC 16 June 2019
Temperature: 11.0°C (52°F)
Dewpoint: 11.0°C (52°F) [RH = 100%]
Pressure (altimeter): 29.93 inches Hg (1013.6 mb)
[Sea-level pressure: 1013.8 mb]
Winds: from the N (360 degrees) at 7 MPH (6 knots; 3.1 m/s)
Visibility: 8 miles (13 km)
Ceiling: 500 feet AGL
Clouds: overcast cloud deck at 500 feet AGL
Weather: -RA  (light rain)

METAR text: KVBG 161139Z AUTO 01006KT 8SM OVC005 11/11 A2993 RMK AO2 RAB18E34RAB37E39 SLP138
Conditions at: KVBG (VANDENBERG AFB , CA, US) observed 1139 UTC 16 June 2019
Temperature: 11.0°C (52°F)
Dewpoint: 11.0°C (52°F) [RH = 100%]
Pressure (altimeter): 29.93 inches Hg (1013.6 mb)
[Sea-level pressure: 1013.8 mb]
Winds: from the N (10 degrees) at 7 MPH (6 knots; 3.1 m/s)
Visibility: 8 miles (13 km)
Ceiling: 500 feet AGL
Clouds: overcast cloud deck at 500 feet AGL
Weather: automated observation with no human augmentation;
there may or may not be significant weather present at this time

METAR text: KVBG 161137Z AUTO 36006KT 8SM -RA OVC005 11/11 A2993 RMK AO2 RAB18E34RAB37 SLP138
Conditions at: KVBG (VANDENBERG AFB , CA, US) observed 1137 UTC 16 June 2019
Temperature: 11.0°C (52°F)
Dewpoint: 11.0°C (52°F) [RH = 100%]
Pressure (altimeter): 29.93 inches Hg (1013.6 mb)
[Sea-level pressure: 1013.8 mb]
Winds: from the N (360 degrees) at 7 MPH (6 knots; 3.1 m/s)
Visibility: 8 miles (13 km)
Ceiling: 500 feet AGL
Clouds: overcast cloud deck at 500 feet AGL
Weather: -RA  (light rain)

METAR text: KVBG 161134Z AUTO 01008KT 9SM OVC005 11/11 A2993 RMK AO2 RAB18E34 SLP138
Conditions at: KVBG (VANDENBERG AFB , CA, US) observed 1134 UTC 16 June 2019
Temperature: 11.0°C (52°F)
Dewpoint: 11.0°C (52°F) [RH = 100%]
Pressure (altimeter): 29.93 inches Hg (1013.6 mb)
[Sea-level pressure: 1013.8 mb]
Winds: from the N (10 degrees) at 9 MPH (8 knots; 4.1 m/s)
Visibility: 9 miles (14 km)
Ceiling: 500 feet AGL
Clouds: overcast cloud deck at 500 feet AGL
Weather: automated observation with no human augmentation;
there may or may not be significant weather present at this time

METAR text: KVBG 161118Z AUTO 01008KT 6SM -RA BR OVC005 11/11 A2993 RMK AO2 RAB18 SLP138
Conditions at: KVBG (VANDENBERG AFB , CA, US) observed 1118 UTC 16 June 2019
Temperature: 11.0°C (52°F)
Dewpoint: 11.0°C (52°F) [RH = 100%]
Pressure (altimeter): 29.93 inches Hg (1013.6 mb)
[Sea-level pressure: 1013.8 mb]
Winds: from the N (10 degrees) at 9 MPH (8 knots; 4.1 m/s)
Visibility: 6 miles (10 km)
Ceiling: 500 feet AGL
Clouds: overcast cloud deck at 500 feet AGL
Weather: -RA BR  (light rain, mist)

METAR text: KVBG 161058Z AUTO 02006KT 10SM OVC005 11/11 A2993 RMK AO2 SLP138 T01140111
Conditions at: KVBG (VANDENBERG AFB , CA, US) observed 1058 UTC 16 June 2019
Temperature: 11.4°C (53°F)
Dewpoint: 11.1°C (52°F) [RH = 98%]
Pressure (altimeter): 29.93 inches Hg (1013.6 mb)
[Sea-level pressure: 1013.8 mb]
Winds: from the NNE (20 degrees) at 7 MPH (6 knots; 3.1 m/s)
Visibility: 10 or more miles (16+ km)
Ceiling: 500 feet AGL
Clouds: overcast cloud deck at 500 feet AGL
Weather: automated observation with no human augmentation;
there may or may not be significant weather present at this time

METAR text: KVBG 161053Z AUTO 02007KT 9SM OVC005 11/11 A2993 RMK AO2 SLP138
Conditions at: KVBG (VANDENBERG AFB , CA, US) observed 1053 UTC 16 June 2019
Temperature: 11.0°C (52°F)
Dewpoint: 11.0°C (52°F) [RH = 100%]
Pressure (altimeter): 29.93 inches Hg (1013.6 mb)
[Sea-level pressure: 1013.8 mb]
Winds: from the NNE (20 degrees) at 8 MPH (7 knots; 3.6 m/s)
Visibility: 9 miles (14 km)
Ceiling: 500 feet AGL
Clouds: overcast cloud deck at 500 feet AGL
Weather: automated observation with no human augmentation;
there may or may not be significant weather present at this time

METAR text: KVBG 161028Z AUTO 01007KT 8SM OVC004 11/11 A2993 RMK AO2 SLP138
Conditions at: KVBG (VANDENBERG AFB , CA, US) observed 1028 UTC 16 June 2019
Temperature: 11.0°C (52°F)
Dewpoint: 11.0°C (52°F) [RH = 100%]
Pressure (altimeter): 29.93 inches Hg (1013.6 mb)
[Sea-level pressure: 1013.8 mb]
Winds: from the N (10 degrees) at 8 MPH (7 knots; 3.6 m/s)
Visibility: 8 miles (13 km)
Ceiling: 400 feet AGL
Clouds: overcast cloud deck at 400 feet AGL
Weather: automated observation with no human augmentation;
there may or may not be significant weather present at this time

METAR text: KVBG 161018Z AUTO 01006KT 7SM OVC003 11/11 A2993 RMK AO2 SLP138
Conditions at: KVBG (VANDENBERG AFB , CA, US) observed 1018 UTC 16 June 2019
Temperature: 11.0°C (52°F)
Dewpoint: 11.0°C (52°F) [RH = 100%]
Pressure (altimeter): 29.93 inches Hg (1013.6 mb)
[Sea-level pressure: 1013.8 mb]
Winds: from the N (10 degrees) at 7 MPH (6 knots; 3.1 m/s)
Visibility: 7 miles (11 km)
Ceiling: 300 feet AGL
Clouds: overcast cloud deck at 300 feet AGL
Weather: automated observation with no human augmentation;
there may or may not be significant weather present at this time

METAR text: KVBG 160958Z AUTO 36006KT 9SM OVC004 12/11 A2993 RMK AO2 SLP138 T01150110
Conditions at: KVBG (VANDENBERG AFB , CA, US) observed 0958 UTC 16 June 2019
Temperature: 11.5°C (53°F)
Dewpoint: 11.0°C (52°F) [RH = 97%]
Pressure (altimeter): 29.93 inches Hg (1013.6 mb)
[Sea-level pressure: 1013.8 mb]
Winds: from the N (360 degrees) at 7 MPH (6 knots; 3.1 m/s)
Visibility: 9 miles (14 km)
Ceiling: 400 feet AGL
Clouds: overcast cloud deck at 400 feet AGL
Weather: automated observation with no human augmentation;
there may or may not be significant weather present at this time

METAR text: KVBG 160938Z AUTO 36008KT 9SM OVC004 11/11 A2994 RMK AO2 SLP142
Conditions at: KVBG (VANDENBERG AFB , CA, US) observed 0938 UTC 16 June 2019
Temperature: 11.0°C (52°F)
Dewpoint: 11.0°C (52°F) [RH = 100%]
Pressure (altimeter): 29.94 inches Hg (1014.0 mb)
[Sea-level pressure: 1014.2 mb]
Winds: from the N (360 degrees) at 9 MPH (8 knots; 4.1 m/s)
Visibility: 9 miles (14 km)
Ceiling: 400 feet AGL
Clouds: overcast cloud deck at 400 feet AGL
Weather: automated observation with no human augmentation;
there may or may not be significant weather present at this time

METAR text: KVBG 160858Z AUTO 36009KT 10SM OVC005 12/11 A2994 RMK AO2 SLP142 T01150108 57012
Conditions at: KVBG (VANDENBERG AFB , CA, US) observed 0858 UTC 16 June 2019
Temperature: 11.5°C (53°F)
Dewpoint: 10.8°C (51°F) [RH = 95%]
Pressure (altimeter): 29.94 inches Hg (1014.0 mb)
[Sea-level pressure: 1014.2 mb]
Winds: from the N (360 degrees) at 10 MPH (9 knots; 4.6 m/s)
Visibility: 10 or more miles (16+ km)
Ceiling: 500 feet AGL
Clouds: overcast cloud deck at 500 feet AGL
Weather: automated observation with no human augmentation;
there may or may not be significant weather present at this time

METAR text: KVBG 160853Z AUTO 35010KT 10SM OVC005 12/11 A2994 RMK AO2 SLP142
Conditions at: KVBG (VANDENBERG AFB , CA, US) observed 0853 UTC 16 June 2019
Temperature: 12.0°C (54°F)
Dewpoint: 11.0°C (52°F) [RH = 94%]
Pressure (altimeter): 29.94 inches Hg (1014.0 mb)
[Sea-level pressure: 1014.2 mb]
Winds: from the N (350 degrees) at 12 MPH (10 knots; 5.1 m/s)
Visibility: 10 or more miles (16+ km)
Ceiling: 500 feet AGL
Clouds: overcast cloud deck at 500 feet AGL
Weather: automated observation with no human augmentation;
there may or may not be significant weather present at this time

METAR text: KVBG 160828Z AUTO 34009KT 10SM OVC006 12/11 A2994 RMK AO2 SLP142
Conditions at: KVBG (VANDENBERG AFB , CA, US) observed 0828 UTC 16 June 2019
Temperature: 12.0°C (54°F)
Dewpoint: 11.0°C (52°F) [RH = 94%]
Pressure (altimeter): 29.94 inches Hg (1014.0 mb)
[Sea-level pressure: 1014.2 mb]
Winds: from the NNW (340 degrees) at 10 MPH (9 knots; 4.6 m/s)
Visibility: 10 or more miles (16+ km)
Ceiling: 600 feet AGL
Clouds: overcast cloud deck at 600 feet AGL
Weather: automated observation with no human augmentation;
there may or may not be significant weather present at this time

METAR text: KVBG 160758Z AUTO 34009KT 10SM OVC005 12/11 A2995 RMK AO2 SLP145 T01150109 401490111
Conditions at: KVBG (VANDENBERG AFB , CA, US) observed 0758 UTC 16 June 2019
Temperature: 11.5°C (53°F)
Dewpoint: 10.9°C (52°F) [RH = 96%]
Pressure (altimeter): 29.95 inches Hg (1014.3 mb)
[Sea-level pressure: 1014.5 mb]
Winds: from the NNW (340 degrees) at 10 MPH (9 knots; 4.6 m/s)
Visibility: 10 or more miles (16+ km)
Ceiling: 500 feet AGL
Clouds: overcast cloud deck at 500 feet AGL
Weather: automated observation with no human augmentation;
there may or may not be significant weather present at this time

METAR text: KVBG 160743Z AUTO 35009KT 10SM OVC005 11/11 A2995 RMK AO2 SLP145
Conditions at: KVBG (VANDENBERG AFB , CA, US) observed 0743 UTC 16 June 2019
Temperature: 11.0°C (52°F)
Dewpoint: 11.0°C (52°F) [RH = 100%]
Pressure (altimeter): 29.95 inches Hg (1014.3 mb)
[Sea-level pressure: 1014.5 mb]
Winds: from the N (350 degrees) at 10 MPH (9 knots; 4.6 m/s)
Visibility: 10 or more miles (16+ km)
Ceiling: 500 feet AGL
Clouds: overcast cloud deck at 500 feet AGL
Weather: automated observation with no human augmentation;
there may or may not be significant weather present at this time

METAR text: KVBG 160738Z AUTO 36009KT 10SM OVC004 11/11 A2995 RMK AO2 SLP145
Conditions at: KVBG (VANDENBERG AFB , CA, US) observed 0738 UTC 16 June 2019
Temperature: 11.0°C (52°F)
Dewpoint: 11.0°C (52°F) [RH = 100%]
Pressure (altimeter): 29.95 inches Hg (1014.3 mb)
[Sea-level pressure: 1014.5 mb]
Winds: from the N (360 degrees) at 10 MPH (9 knots; 4.6 m/s)
Visibility: 10 or more miles (16+ km)
Ceiling: 400 feet AGL
Clouds: overcast cloud deck at 400 feet AGL
Weather: automated observation with no human augmentation;
there may or may not be significant weather present at this time

METAR text: KVBG 160723Z AUTO 36011KT 10SM OVC005 12/11 A2995 RMK AO2 SLP145
Conditions at: KVBG (VANDENBERG AFB , CA, US) observed 0723 UTC 16 June 2019
Temperature: 12.0°C (54°F)
Dewpoint: 11.0°C (52°F) [RH = 94%]
Pressure (altimeter): 29.95 inches Hg (1014.3 mb)
[Sea-level pressure: 1014.5 mb]
Winds: from the N (360 degrees) at 13 MPH (11 knots; 5.7 m/s)
Visibility: 10 or more miles (16+ km)
Ceiling: 500 feet AGL
Clouds: overcast cloud deck at 500 feet AGL
Weather: automated observation with no human augmentation;
there may or may not be significant weather present at this time

METAR text: KVBG 160718Z AUTO 01009KT 10SM OVC006 12/11 A2995 RMK AO2 SLP145
Conditions at: KVBG (VANDENBERG AFB , CA, US) observed 0718 UTC 16 June 2019
Temperature: 12.0°C (54°F)
Dewpoint: 11.0°C (52°F) [RH = 94%]
Pressure (altimeter): 29.95 inches Hg (1014.3 mb)
[Sea-level pressure: 1014.5 mb]
Winds: from the N (10 degrees) at 10 MPH (9 knots; 4.6 m/s)
Visibility: 10 or more miles (16+ km)
Ceiling: 600 feet AGL
Clouds: overcast cloud deck at 600 feet AGL
Weather: automated observation with no human augmentation;
there may or may not be significant weather present at this time

METAR text: KVBG 160658Z AUTO 36008KT 10SM OVC005 12/11 A2996 RMK AO2 SLP148 T01160110
Conditions at: KVBG (VANDENBERG AFB , CA, US) observed 0658 UTC 16 June 2019
Temperature: 11.6°C (53°F)
Dewpoint: 11.0°C (52°F) [RH = 96%]
Pressure (altimeter): 29.96 inches Hg (1014.6 mb)
[Sea-level pressure: 1014.8 mb]
Winds: from the N (360 degrees) at 9 MPH (8 knots; 4.1 m/s)
Visibility: 10 or more miles (16+ km)
Ceiling: 500 feet AGL
Clouds: overcast cloud deck at 500 feet AGL
Weather: automated observation with no human augmentation;
there may or may not be significant weather present at this time

METAR text: KVBG 160558Z AUTO 36010KT 10SM OVC005 12/11 A2997 RMK AO2 SLP152 T01200112 10143 20120 50007
Conditions at: KVBG (VANDENBERG AFB , CA, US) observed 0558 UTC 16 June 2019
Temperature: 12.0°C (54°F)
Dewpoint: 11.2°C (52°F) [RH = 95%]
Pressure (altimeter): 29.97 inches Hg (1015.0 mb)
[Sea-level pressure: 1015.2 mb]
Winds: from the N (360 degrees) at 12 MPH (10 knots; 5.1 m/s)
Visibility: 10 or more miles (16+ km)
Ceiling: 500 feet AGL
Clouds: overcast cloud deck at 500 feet AGL
Weather: automated observation with no human augmentation;
there may or may not be significant weather present at this time

METAR text: KVBG 160458Z AUTO 36010KT 10SM OVC005 12/11 A2998 RMK AO2 SLP155 T01220112
Conditions at: KVBG (VANDENBERG AFB , CA, US) observed 0458 UTC 16 June 2019
Temperature: 12.2°C (54°F)
Dewpoint: 11.2°C (52°F) [RH = 94%]
Pressure (altimeter): 29.98 inches Hg (1015.3 mb)
[Sea-level pressure: 1015.5 mb]
Winds: from the N (360 degrees) at 12 MPH (10 knots; 5.1 m/s)
Visibility: 10 or more miles (16+ km)
Ceiling: 500 feet AGL
Clouds: overcast cloud deck at 500 feet AGL
Weather: automated observation with no human augmentation;
there may or may not be significant weather present at this time

METAR text: KVBG 160428Z AUTO 36013KT 10SM OVC005 12/11 A2997 RMK AO2 SLP152
Conditions at: KVBG (VANDENBERG AFB , CA, US) observed 0428 UTC 16 June 2019
Temperature: 12.0°C (54°F)
Dewpoint: 11.0°C (52°F) [RH = 94%]
Pressure (altimeter): 29.97 inches Hg (1015.0 mb)
[Sea-level pressure: 1015.2 mb]
Winds: from the N (360 degrees) at 15 MPH (13 knots; 6.7 m/s)
Visibility: 10 or more miles (16+ km)
Ceiling: 500 feet AGL
Clouds: overcast cloud deck at 500 feet AGL
Weather: automated observation with no human augmentation;
there may or may not be significant weather present at this time

METAR text: KVBG 160358Z AUTO 35011KT 10SM OVC006 12/11 A2996 RMK AO2 SLP149 T01220111
Conditions at: KVBG (VANDENBERG AFB , CA, US) observed 0358 UTC 16 June 2019
Temperature: 12.2°C (54°F)
Dewpoint: 11.1°C (52°F) [RH = 93%]
Pressure (altimeter): 29.96 inches Hg (1014.6 mb)
[Sea-level pressure: 1014.9 mb]
Winds: from the N (350 degrees) at 13 MPH (11 knots; 5.7 m/s)
Visibility: 10 or more miles (16+ km)
Ceiling: 600 feet AGL
Clouds: overcast cloud deck at 600 feet AGL
Weather: automated observation with no human augmentation;
there may or may not be significant weather present at this time

METAR text: KVBG 160258Z AUTO 36011KT 10SM OVC006 13/11 A2995 RMK AO2 SLP145 T01260112 55002
Conditions at: KVBG (VANDENBERG AFB , CA, US) observed 0258 UTC 16 June 2019
Temperature: 12.6°C (55°F)
Dewpoint: 11.2°C (52°F) [RH = 91%]
Pressure (altimeter): 29.95 inches Hg (1014.3 mb)
[Sea-level pressure: 1014.5 mb]
Winds: from the N (360 degrees) at 13 MPH (11 knots; 5.7 m/s)
Visibility: 10 or more miles (16+ km)
Ceiling: 600 feet AGL
Clouds: overcast cloud deck at 600 feet AGL
Weather: automated observation with no human augmentation;
there may or may not be significant weather present at this time

METAR text: KVBG 160248Z AUTO 35012KT 9SM OVC006 13/11 A2995 RMK AO2 SLP145
Conditions at: KVBG (VANDENBERG AFB , CA, US) observed 0248 UTC 16 June 2019
Temperature: 13.0°C (55°F)
Dewpoint: 11.0°C (52°F) [RH = 88%]
Pressure (altimeter): 29.95 inches Hg (1014.3 mb)
[Sea-level pressure: 1014.5 mb]
Winds: from the N (350 degrees) at 14 MPH (12 knots; 6.2 m/s)
Visibility: 9 miles (14 km)
Ceiling: 600 feet AGL
Clouds: overcast cloud deck at 600 feet AGL
Weather: automated observation with no human augmentation;
there may or may not be significant weather present at this time

METAR text: KVBG 160158Z AUTO 36012KT 9SM OVC007 13/11 A2994 RMK AO2 SLP142 T01290111
Conditions at: KVBG (VANDENBERG AFB , CA, US) observed 0158 UTC 16 June 2019
Temperature: 12.9°C (55°F)
Dewpoint: 11.1°C (52°F) [RH = 89%]
Pressure (altimeter): 29.94 inches Hg (1014.0 mb)
[Sea-level pressure: 1014.2 mb]
Winds: from the N (360 degrees) at 14 MPH (12 knots; 6.2 m/s)
Visibility: 9 miles (14 km)
Ceiling: 700 feet AGL
Clouds: overcast cloud deck at 700 feet AGL
Weather: automated observation with no human augmentation;
there may or may not be significant weather present at this time

METAR text: KVBG 160143Z AUTO 33010KT 10SM OVC007 13/11 A2995 RMK AO2 SLP145
Conditions at: KVBG (VANDENBERG AFB , CA, US) observed 0143 UTC 16 June 2019
Temperature: 13.0°C (55°F)
Dewpoint: 11.0°C (52°F) [RH = 88%]
Pressure (altimeter): 29.95 inches Hg (1014.3 mb)
[Sea-level pressure: 1014.5 mb]
Winds: from the NNW (330 degrees) at 12 MPH (10 knots; 5.1 m/s)
Visibility: 10 or more miles (16+ km)
Ceiling: 700 feet AGL
Clouds: overcast cloud deck at 700 feet AGL
Weather: automated observation with no human augmentation;
there may or may not be significant weather present at this time

METAR text: KVBG 160123Z AUTO 34012KT 9SM OVC008 13/11 A2995 RMK AO2 SLP145
Conditions at: KVBG (VANDENBERG AFB , CA, US) observed 0123 UTC 16 June 2019
Temperature: 13.0°C (55°F)
Dewpoint: 11.0°C (52°F) [RH = 88%]
Pressure (altimeter): 29.95 inches Hg (1014.3 mb)
[Sea-level pressure: 1014.5 mb]
Winds: from the NNW (340 degrees) at 14 MPH (12 knots; 6.2 m/s)
Visibility: 9 miles (14 km)
Ceiling: 800 feet AGL
Clouds: overcast cloud deck at 800 feet AGL
Weather: automated observation with no human augmentation;
there may or may not be significant weather present at this time

METAR text: KVBG 160118Z AUTO 34013KT 9SM OVC007 13/11 A2995 RMK AO2 SLP145
Conditions at: KVBG (VANDENBERG AFB , CA, US) observed 0118 UTC 16 June 2019
Temperature: 13.0°C (55°F)
Dewpoint: 11.0°C (52°F) [RH = 88%]
Pressure (altimeter): 29.95 inches Hg (1014.3 mb)
[Sea-level pressure: 1014.5 mb]
Winds: from the NNW (340 degrees) at 15 MPH (13 knots; 6.7 m/s)
Visibility: 9 miles (14 km)
Ceiling: 700 feet AGL
Clouds: overcast cloud deck at 700 feet AGL
Weather: automated observation with no human augmentation;
there may or may not be significant weather present at this time

METAR text: KVBG 160058Z AUTO 34013KT 9SM OVC008 13/11 A2995 RMK AO2 SLP145 T01340111
Conditions at: KVBG (VANDENBERG AFB , CA, US) observed 0058 UTC 16 June 2019
Temperature: 13.4°C (56°F)
Dewpoint: 11.1°C (52°F) [RH = 86%]
Pressure (altimeter): 29.95 inches Hg (1014.3 mb)
[Sea-level pressure: 1014.5 mb]
Winds: from the NNW (340 degrees) at 15 MPH (13 knots; 6.7 m/s)
Visibility: 9 miles (14 km)
Ceiling: 800 feet AGL
Clouds: overcast cloud deck at 800 feet AGL
Weather: automated observation with no human augmentation;
there may or may not be significant weather present at this time

METAR text: KVBG 152358Z AUTO 33012KT 10SM OVC009 14/11 A2996 RMK AO2 SLP148 T01430113 10149 20130 57013
Conditions at: KVBG (VANDENBERG AFB , CA, US) observed 2358 UTC 15 June 2019
Temperature: 14.3°C (58°F)
Dewpoint: 11.3°C (52°F) [RH = 82%]
Pressure (altimeter): 29.96 inches Hg (1014.6 mb)
[Sea-level pressure: 1014.8 mb]
Winds: from the NNW (330 degrees) at 14 MPH (12 knots; 6.2 m/s)
Visibility: 10 or more miles (16+ km)
Ceiling: 900 feet AGL
Clouds: overcast cloud deck at 900 feet AGL
Weather: automated observation with no human augmentation;
there may or may not be significant weather present at this time

METAR text: KVBG 152258Z AUTO 33011KT 10SM OVC009 15/11 A2998 RMK AO2 SLP155 T01450114
Conditions at: KVBG (VANDENBERG AFB , CA, US) observed 2258 UTC 15 June 2019
Temperature: 14.5°C (58°F)
Dewpoint: 11.4°C (53°F) [RH = 82%]
Pressure (altimeter): 29.98 inches Hg (1015.3 mb)
[Sea-level pressure: 1015.5 mb]
Winds: from the NNW (330 degrees) at 13 MPH (11 knots; 5.7 m/s)
Visibility: 10 or more miles (16+ km)
Ceiling: 900 feet AGL
Clouds: overcast cloud deck at 900 feet AGL
Weather: automated observation with no human augmentation;
there may or may not be significant weather present at this time

METAR text: KVBG 152158Z AUTO 35012KT 9SM OVC008 15/12 A2999 RMK AO2 SLP158 T01460116
Conditions at: KVBG (VANDENBERG AFB , CA, US) observed 2158 UTC 15 June 2019
Temperature: 14.6°C (58°F)
Dewpoint: 11.6°C (53°F) [RH = 82%]
Pressure (altimeter): 29.99 inches Hg (1015.7 mb)
[Sea-level pressure: 1015.8 mb]
Winds: from the N (350 degrees) at 14 MPH (12 knots; 6.2 m/s)
Visibility: 9 miles (14 km)
Ceiling: 800 feet AGL
Clouds: overcast cloud deck at 800 feet AGL
Weather: automated observation with no human augmentation;
there may or may not be significant weather present at this time

METAR text: KVBG 152058Z AUTO 33008KT 9SM OVC009 14/11 A3000 RMK AO2 SLP162 T01440114 58002
Conditions at: KVBG (VANDENBERG AFB , CA, US) observed 2058 UTC 15 June 2019
Temperature: 14.4°C (58°F)
Dewpoint: 11.4°C (53°F) [RH = 82%]
Pressure (altimeter): 30.00 inches Hg (1016.0 mb)
[Sea-level pressure: 1016.2 mb]
Winds: from the NNW (330 degrees) at 9 MPH (8 knots; 4.1 m/s)
Visibility: 9 miles (14 km)
Ceiling: 900 feet AGL
Clouds: overcast cloud deck at 900 feet AGL
Weather: automated observation with no human augmentation;
there may or may not be significant weather present at this time

METAR text: KVBG 152013Z AUTO 35007KT 9SM OVC008 14/12 A3000 RMK AO2 SLP162
Conditions at: KVBG (VANDENBERG AFB , CA, US) observed 2013 UTC 15 June 2019
Temperature: 14.0°C (57°F)
Dewpoint: 12.0°C (54°F) [RH = 88%]
Pressure (altimeter): 30.00 inches Hg (1016.0 mb)
[Sea-level pressure: 1016.2 mb]
Winds: from the N (350 degrees) at 8 MPH (7 knots; 3.6 m/s)
Visibility: 9 miles (14 km)
Ceiling: 800 feet AGL
Clouds: overcast cloud deck at 800 feet AGL
Weather: automated observation with no human augmentation;
there may or may not be significant weather present at this time

METAR text: KVBG 151958Z AUTO 34007KT 8SM OVC007 14/12 A3000 RMK AO2 SLP162 T01350116
Conditions at: KVBG (VANDENBERG AFB , CA, US) observed 1958 UTC 15 June 2019
Temperature: 13.5°C (56°F)
Dewpoint: 11.6°C (53°F) [RH = 88%]
Pressure (altimeter): 30.00 inches Hg (1016.0 mb)
[Sea-level pressure: 1016.2 mb]
Winds: from the NNW (340 degrees) at 8 MPH (7 knots; 3.6 m/s)
Visibility: 8 miles (13 km)
Ceiling: 700 feet AGL
Clouds: overcast cloud deck at 700 feet AGL
Weather: automated observation with no human augmentation;
there may or may not be significant weather present at this time

METAR text: KVBG 151938Z AUTO 34009KT 9SM OVC007 14/12 A3001 RMK AO2 SLP165
Conditions at: KVBG (VANDENBERG AFB , CA, US) observed 1938 UTC 15 June 2019
Temperature: 14.0°C (57°F)
Dewpoint: 12.0°C (54°F) [RH = 88%]
Pressure (altimeter): 30.01 inches Hg (1016.3 mb)
[Sea-level pressure: 1016.5 mb]
Winds: from the NNW (340 degrees) at 10 MPH (9 knots; 4.6 m/s)
Visibility: 9 miles (14 km)
Ceiling: 700 feet AGL
Clouds: overcast cloud deck at 700 feet AGL
Weather: automated observation with no human augmentation;
there may or may not be significant weather present at this time

METAR text: KVBG 151928Z AUTO 32007KT 10SM OVC008 14/11 A3001 RMK AO2 SLP165
Conditions at: KVBG (VANDENBERG AFB , CA, US) observed 1928 UTC 15 June 2019
Temperature: 14.0°C (57°F)
Dewpoint: 11.0°C (52°F) [RH = 82%]
Pressure (altimeter): 30.01 inches Hg (1016.3 mb)
[Sea-level pressure: 1016.5 mb]
Winds: from the NW (320 degrees) at 8 MPH (7 knots; 3.6 m/s)
Visibility: 10 or more miles (16+ km)
Ceiling: 800 feet AGL
Clouds: overcast cloud deck at 800 feet AGL
Weather: automated observation with no human augmentation;
there may or may not be significant weather present at this time

METAR text: KVBG 151858Z AUTO 35009KT 10SM OVC007 14/12 A3001 RMK AO2 SLP165 T01370115
Conditions at: KVBG (VANDENBERG AFB , CA, US) observed 1858 UTC 15 June 2019
Temperature: 13.7°C (57°F)
Dewpoint: 11.5°C (53°F) [RH = 87%]
Pressure (altimeter): 30.01 inches Hg (1016.3 mb)
[Sea-level pressure: 1016.5 mb]
Winds: from the N (350 degrees) at 10 MPH (9 knots; 4.6 m/s)
Visibility: 10 or more miles (16+ km)
Ceiling: 700 feet AGL
Clouds: overcast cloud deck at 700 feet AGL
Weather: automated observation with no human augmentation;
there may or may not be significant weather present at this time

METAR text: KVBG 151843Z AUTO 32009KT 9SM OVC007 13/12 A3001 RMK AO2 SLP165
Conditions at: KVBG (VANDENBERG AFB , CA, US) observed 1843 UTC 15 June 2019
Temperature: 13.0°C (55°F)
Dewpoint: 12.0°C (54°F) [RH = 94%]
Pressure (altimeter): 30.01 inches Hg (1016.3 mb)
[Sea-level pressure: 1016.5 mb]
Winds: from the NW (320 degrees) at 10 MPH (9 knots; 4.6 m/s)
Visibility: 9 miles (14 km)
Ceiling: 700 feet AGL
Clouds: overcast cloud deck at 700 feet AGL
Weather: automated observation with no human augmentation;
there may or may not be significant weather present at this time

METAR text: KVBG 151828Z AUTO 33007KT 9SM OVC006 13/12 A3001 RMK AO2 SLP165
Conditions at: KVBG (VANDENBERG AFB , CA, US) observed 1828 UTC 15 June 2019
Temperature: 13.0°C (55°F)
Dewpoint: 12.0°C (54°F) [RH = 94%]
Pressure (altimeter): 30.01 inches Hg (1016.3 mb)
[Sea-level pressure: 1016.5 mb]
Winds: from the NNW (330 degrees) at 8 MPH (7 knots; 3.6 m/s)
Visibility: 9 miles (14 km)
Ceiling: 600 feet AGL
Clouds: overcast cloud deck at 600 feet AGL
Weather: automated observation with no human augmentation;
there may or may not be significant weather present at this time

METAR text: KVBG 151823Z AUTO 34009KT 8SM OVC005 13/12 A3001 RMK AO2 SLP165
Conditions at: KVBG (VANDENBERG AFB , CA, US) observed 1823 UTC 15 June 2019
Temperature: 13.0°C (55°F)
Dewpoint: 12.0°C (54°F) [RH = 94%]
Pressure (altimeter): 30.01 inches Hg (1016.3 mb)
[Sea-level pressure: 1016.5 mb]
Winds: from the NNW (340 degrees) at 10 MPH (9 knots; 4.6 m/s)
Visibility: 8 miles (13 km)
Ceiling: 500 feet AGL
Clouds: overcast cloud deck at 500 feet AGL
Weather: automated observation with no human augmentation;
there may or may not be significant weather present at this time

METAR text: KVBG 151813Z AUTO 33009KT 8SM OVC006 13/12 A3000 RMK AO2 SLP162
Conditions at: KVBG (VANDENBERG AFB , CA, US) observed 1813 UTC 15 June 2019
Temperature: 13.0°C (55°F)
Dewpoint: 12.0°C (54°F) [RH = 94%]
Pressure (altimeter): 30.00 inches Hg (1016.0 mb)
[Sea-level pressure: 1016.2 mb]
Winds: from the NNW (330 degrees) at 10 MPH (9 knots; 4.6 m/s)
Visibility: 8 miles (13 km)
Ceiling: 600 feet AGL
Clouds: overcast cloud deck at 600 feet AGL
Weather: automated observation with no human augmentation;
there may or may not be significant weather present at this time

METAR text: KVBG 151758Z AUTO 33008KT 9SM OVC007 13/12 A3000 RMK AO2 SLP162 60000 T01300118 10130 20111 51006
Conditions at: KVBG (VANDENBERG AFB , CA, US) observed 1758 UTC 15 June 2019
Temperature: 13.0°C (55°F)
Dewpoint: 11.8°C (53°F) [RH = 92%]
Pressure (altimeter): 30.00 inches Hg (1016.0 mb)
[Sea-level pressure: 1016.2 mb]
Winds: from the NNW (330 degrees) at 9 MPH (8 knots; 4.1 m/s)
Visibility: 9 miles (14 km)
Ceiling: 700 feet AGL
Clouds: overcast cloud deck at 700 feet AGL
Weather: automated observation with no human augmentation;
there may or may not be significant weather present at this time

METAR text: KVBG 151743Z AUTO 34006KT 9SM OVC007 13/12 A3000 RMK AO2 SLP162
Conditions at: KVBG (VANDENBERG AFB , CA, US) observed 1743 UTC 15 June 2019
Temperature: 13.0°C (55°F)
Dewpoint: 12.0°C (54°F) [RH = 94%]
Pressure (altimeter): 30.00 inches Hg (1016.0 mb)
[Sea-level pressure: 1016.2 mb]
Winds: from the NNW (340 degrees) at 7 MPH (6 knots; 3.1 m/s)
Visibility: 9 miles (14 km)
Ceiling: 700 feet AGL
Clouds: overcast cloud deck at 700 feet AGL
Weather: automated observation with no human augmentation;
there may or may not be significant weather present at this time

METAR text: KVBG 151718Z AUTO 33008KT 8SM OVC006 12/11 A3000 RMK AO2 SLP162
Conditions at: KVBG (VANDENBERG AFB , CA, US) observed 1718 UTC 15 June 2019
Temperature: 12.0°C (54°F)
Dewpoint: 11.0°C (52°F) [RH = 94%]
Pressure (altimeter): 30.00 inches Hg (1016.0 mb)
[Sea-level pressure: 1016.2 mb]
Winds: from the NNW (330 degrees) at 9 MPH (8 knots; 4.1 m/s)
Visibility: 8 miles (13 km)
Ceiling: 600 feet AGL
Clouds: overcast cloud deck at 600 feet AGL
Weather: automated observation with no human augmentation;
there may or may not be significant weather present at this time

METAR text: KVBG 151658Z AUTO 02005KT 8SM OVC005 12/12 A3000 RMK AO2 SLP162 T01200116
Conditions at: KVBG (VANDENBERG AFB , CA, US) observed 1658 UTC 15 June 2019
Temperature: 12.0°C (54°F)
Dewpoint: 11.6°C (53°F) [RH = 97%]
Pressure (altimeter): 30.00 inches Hg (1016.0 mb)
[Sea-level pressure: 1016.2 mb]
Winds: from the NNE (20 degrees) at 6 MPH (5 knots; 2.6 m/s)
Visibility: 8 miles (13 km)
Ceiling: 500 feet AGL
Clouds: overcast cloud deck at 500 feet AGL
Weather: automated observation with no human augmentation;
there may or may not be significant weather present at this time

METAR text: KVBG 151643Z AUTO 35006KT 5SM BR OVC005 12/12 A3000 RMK AO2 SLP162
Conditions at: KVBG (VANDENBERG AFB , CA, US) observed 1643 UTC 15 June 2019
Temperature: 12.0°C (54°F)
Dewpoint: 12.0°C (54°F) [RH = 100%]
Pressure (altimeter): 30.00 inches Hg (1016.0 mb)
[Sea-level pressure: 1016.2 mb]
Winds: from the N (350 degrees) at 7 MPH (6 knots; 3.1 m/s)
Visibility: 5 miles ( 8 km)
Ceiling: 500 feet AGL
Clouds: overcast cloud deck at 500 feet AGL
Weather: BR  (mist)

METAR text: KVBG 151623Z AUTO 33009KT 4SM BR OVC004 12/12 A3000 RMK AO2 SLP162
Conditions at: KVBG (VANDENBERG AFB , CA, US) observed 1623 UTC 15 June 2019
Temperature: 12.0°C (54°F)
Dewpoint: 12.0°C (54°F) [RH = 100%]
Pressure (altimeter): 30.00 inches Hg (1016.0 mb)
[Sea-level pressure: 1016.2 mb]
Winds: from the NNW (330 degrees) at 10 MPH (9 knots; 4.6 m/s)
Visibility: 4 miles ( 6 km)
Ceiling: 400 feet AGL
Clouds: overcast cloud deck at 400 feet AGL
Weather: BR  (mist)

METAR text: KVBG 151558Z AUTO 34007KT 3SM BR OVC002 12/12 A3000 RMK AO2 VIS 2 1/4 RWY12 RAB20E33 SLP162 P0000 T01180115
Conditions at: KVBG (VANDENBERG AFB , CA, US) observed 1558 UTC 15 June 2019
Temperature: 11.8°C (53°F)
Dewpoint: 11.5°C (53°F) [RH = 98%]
Pressure (altimeter): 30.00 inches Hg (1016.0 mb)
[Sea-level pressure: 1016.2 mb]
Winds: from the NNW (340 degrees) at 8 MPH (7 knots; 3.6 m/s)
Visibility: 3 miles ( 5 km)
Ceiling: 200 feet AGL
Clouds: overcast cloud deck at 200 feet AGL
Weather: BR  (mist)

METAR text: KVBG 151543Z AUTO 35009KT 2 3/4SM BR OVC002 12/11 A3000 RMK AO2 RAB20E33 SLP162
Conditions at: KVBG (VANDENBERG AFB , CA, US) observed 1543 UTC 15 June 2019
Temperature: 12.0°C (54°F)
Dewpoint: 11.0°C (52°F) [RH = 94%]
Pressure (altimeter): 30.00 inches Hg (1016.0 mb)
[Sea-level pressure: 1016.2 mb]
Winds: from the N (350 degrees) at 10 MPH (9 knots; 4.6 m/s)
Visibility: 2.75 miles (4.43 km)
Ceiling: 200 feet AGL
Clouds: overcast cloud deck at 200 feet AGL
Weather: BR  (mist)

METAR text: KVBG 151533Z AUTO 33007KT 3SM BR OVC002 12/11 A2999 RMK AO2 VIS 2 1/4 RWY12 RAB20E33 SLP159
Conditions at: KVBG (VANDENBERG AFB , CA, US) observed 1533 UTC 15 June 2019
Temperature: 12.0°C (54°F)
Dewpoint: 11.0°C (52°F) [RH = 94%]
Pressure (altimeter): 29.99 inches Hg (1015.7 mb)
[Sea-level pressure: 1015.9 mb]
Winds: from the NNW (330 degrees) at 8 MPH (7 knots; 3.6 m/s)
Visibility: 3 miles ( 5 km)
Ceiling: 200 feet AGL
Clouds: overcast cloud deck at 200 feet AGL
Weather: BR  (mist)

METAR text: KVBG 151530Z AUTO 34007KT 3SM -RA BR OVC002 12/11 A2999 RMK AO2 RAB20 SLP159
Conditions at: KVBG (VANDENBERG AFB , CA, US) observed 1530 UTC 15 June 2019
Temperature: 12.0°C (54°F)
Dewpoint: 11.0°C (52°F) [RH = 94%]
Pressure (altimeter): 29.99 inches Hg (1015.7 mb)
[Sea-level pressure: 1015.9 mb]
Winds: from the NNW (340 degrees) at 8 MPH (7 knots; 3.6 m/s)
Visibility: 3 miles ( 5 km)
Ceiling: 200 feet AGL
Clouds: overcast cloud deck at 200 feet AGL
Weather: -RA BR  (light rain, mist)

METAR text: KVBG 151520Z AUTO 35009KT 2 3/4SM -RA BR OVC002 12/11 A2999 RMK AO2 RAB20 SLP159
Conditions at: KVBG (VANDENBERG AFB , CA, US) observed 1520 UTC 15 June 2019
Temperature: 12.0°C (54°F)
Dewpoint: 11.0°C (52°F) [RH = 94%]
Pressure (altimeter): 29.99 inches Hg (1015.7 mb)
[Sea-level pressure: 1015.9 mb]
Winds: from the N (350 degrees) at 10 MPH (9 knots; 4.6 m/s)
Visibility: 2.75 miles (4.43 km)
Ceiling: 200 feet AGL
Clouds: overcast cloud deck at 200 feet AGL
Weather: -RA BR  (light rain, mist)

METAR text: KVBG 151518Z AUTO 34008KT 3SM BR OVC002 12/11 A2999 RMK AO2 VIS 2 1/4 RWY12 SLP159
Conditions at: KVBG (VANDENBERG AFB , CA, US) observed 1518 UTC 15 June 2019
Temperature: 12.0°C (54°F)
Dewpoint: 11.0°C (52°F) [RH = 94%]
Pressure (altimeter): 29.99 inches Hg (1015.7 mb)
[Sea-level pressure: 1015.9 mb]
Winds: from the NNW (340 degrees) at 9 MPH (8 knots; 4.1 m/s)
Visibility: 3 miles ( 5 km)
Ceiling: 200 feet AGL
Clouds: overcast cloud deck at 200 feet AGL
Weather: BR  (mist)

METAR text: KVBG 151458Z AUTO 34006KT 2 3/4SM BR OVC002 12/11 A2999 RMK AO2 VIS 2 RWY12 SLP159 T01160113 52011
Conditions at: KVBG (VANDENBERG AFB , CA, US) observed 1458 UTC 15 June 2019
Temperature: 11.6°C (53°F)
Dewpoint: 11.3°C (52°F) [RH = 98%]
Pressure (altimeter): 29.99 inches Hg (1015.7 mb)
[Sea-level pressure: 1015.9 mb]
Winds: from the NNW (340 degrees) at 7 MPH (6 knots; 3.1 m/s)
Visibility: 2.75 miles (4.43 km)
Ceiling: 200 feet AGL
Clouds: overcast cloud deck at 200 feet AGL
Weather: BR  (mist)

METAR text: KVBG 151453Z AUTO 33005KT 3SM BR OVC002 12/11 A2999 RMK AO2 VIS 2 RWY12 SLP159
Conditions at: KVBG (VANDENBERG AFB , CA, US) observed 1453 UTC 15 June 2019
Temperature: 12.0°C (54°F)
Dewpoint: 11.0°C (52°F) [RH = 94%]
Pressure (altimeter): 29.99 inches Hg (1015.7 mb)
[Sea-level pressure: 1015.9 mb]
Winds: from the NNW (330 degrees) at 6 MPH (5 knots; 2.6 m/s)
Visibility: 3 miles ( 5 km)
Ceiling: 200 feet AGL
Clouds: overcast cloud deck at 200 feet AGL
Weather: BR  (mist)

METAR text: KVBG 151443Z AUTO 35006KT 2 3/4SM BR OVC003 12/11 A2999 RMK AO2 VIS 2 3/4V4 SLP159
Conditions at: KVBG (VANDENBERG AFB , CA, US) observed 1443 UTC 15 June 2019
Temperature: 12.0°C (54°F)
Dewpoint: 11.0°C (52°F) [RH = 94%]
Pressure (altimeter): 29.99 inches Hg (1015.7 mb)
[Sea-level pressure: 1015.9 mb]
Winds: from the N (350 degrees) at 7 MPH (6 knots; 3.1 m/s)
Visibility: 2.75 miles (4.43 km)
Ceiling: 300 feet AGL
Clouds: overcast cloud deck at 300 feet AGL
Weather: BR  (mist)

METAR text: KVBG 151358Z AUTO 36006KT 5SM BR OVC003 11/11 A2998 RMK AO2 SLP155 T01140111
Conditions at: KVBG (VANDENBERG AFB , CA, US) observed 1358 UTC 15 June 2019
Temperature: 11.4°C (53°F)
Dewpoint: 11.1°C (52°F) [RH = 98%]
Pressure (altimeter): 29.98 inches Hg (1015.3 mb)
[Sea-level pressure: 1015.5 mb]
Winds: from the N (360 degrees) at 7 MPH (6 knots; 3.1 m/s)
Visibility: 5 miles ( 8 km)
Ceiling: 300 feet AGL
Clouds: overcast cloud deck at 300 feet AGL
Weather: BR  (mist)

METAR text: KVBG 151333Z AUTO 33007KT 3SM BR OVC002 11/11 A2997 RMK AO2 SLP152
Conditions at: KVBG (VANDENBERG AFB , CA, US) observed 1333 UTC 15 June 2019
Temperature: 11.0°C (52°F)
Dewpoint: 11.0°C (52°F) [RH = 100%]
Pressure (altimeter): 29.97 inches Hg (1015.0 mb)
[Sea-level pressure: 1015.2 mb]
Winds: from the NNW (330 degrees) at 8 MPH (7 knots; 3.6 m/s)
Visibility: 3 miles ( 5 km)
Ceiling: 200 feet AGL
Clouds: overcast cloud deck at 200 feet AGL
Weather: BR  (mist)

METAR text: KVBG 151308Z AUTO 01008KT 4SM BR OVC002 11/11 A2997 RMK AO2 SLP152
Conditions at: KVBG (VANDENBERG AFB , CA, US) observed 1308 UTC 15 June 2019
Temperature: 11.0°C (52°F)
Dewpoint: 11.0°C (52°F) [RH = 100%]
Pressure (altimeter): 29.97 inches Hg (1015.0 mb)
[Sea-level pressure: 1015.2 mb]
Winds: from the N (10 degrees) at 9 MPH (8 knots; 4.1 m/s)
Visibility: 4 miles ( 6 km)
Ceiling: 200 feet AGL
Clouds: overcast cloud deck at 200 feet AGL
Weather: BR  (mist)

METAR text: KVBG 151258Z AUTO 34010KT 2 3/4SM BR OVC002 11/11 A2997 RMK AO2 VIS 2 3/4V6 SLP152
Conditions at: KVBG (VANDENBERG AFB , CA, US) observed 1258 UTC 15 June 2019
Temperature: 11.0°C (52°F)
Dewpoint: 11.0°C (52°F) [RH = 100%]
Pressure (altimeter): 29.97 inches Hg (1015.0 mb)
[Sea-level pressure: 1015.2 mb]
Winds: from the NNW (340 degrees) at 12 MPH (10 knots; 5.1 m/s)
Visibility: 2.75 miles (4.43 km)
Ceiling: 200 feet AGL
Clouds: overcast cloud deck at 200 feet AGL
Weather: BR  (mist)

METAR text: KVBG 151253Z AUTO 35009KT 5SM BR OVC002 11/11 A2997 RMK AO2 VIS 1 7/8 RWY12 SLP152
Conditions at: KVBG (VANDENBERG AFB , CA, US) observed 1253 UTC 15 June 2019
Temperature: 11.0°C (52°F)
Dewpoint: 11.0°C (52°F) [RH = 100%]
Pressure (altimeter): 29.97 inches Hg (1015.0 mb)
[Sea-level pressure: 1015.2 mb]
Winds: from the N (350 degrees) at 10 MPH (9 knots; 4.6 m/s)
Visibility: 5 miles ( 8 km)
Ceiling: 200 feet AGL
Clouds: overcast cloud deck at 200 feet AGL
Weather: BR  (mist)

METAR text: KVBG 151243Z AUTO 35010KT 5SM BR OVC001 11/11 A2997 RMK AO2 SLP152
Conditions at: KVBG (VANDENBERG AFB , CA, US) observed 1243 UTC 15 June 2019
Temperature: 11.0°C (52°F)
Dewpoint: 11.0°C (52°F) [RH = 100%]
Pressure (altimeter): 29.97 inches Hg (1015.0 mb)
[Sea-level pressure: 1015.2 mb]
Winds: from the N (350 degrees) at 12 MPH (10 knots; 5.1 m/s)
Visibility: 5 miles ( 8 km)
Ceiling: 100 feet AGL
Clouds: overcast cloud deck at 100 feet AGL
Weather: BR  (mist)

METAR text: KVBG 151238Z AUTO 34010KT 2 1/2SM BR OVC001 11/11 A2997 RMK AO2 VIS 1 5/8V2 1/2 SLP152
Conditions at: KVBG (VANDENBERG AFB , CA, US) observed 1238 UTC 15 June 2019
Temperature: 11.0°C (52°F)
Dewpoint: 11.0°C (52°F) [RH = 100%]
Pressure (altimeter): 29.97 inches Hg (1015.0 mb)
[Sea-level pressure: 1015.2 mb]
Winds: from the NNW (340 degrees) at 12 MPH (10 knots; 5.1 m/s)
Visibility: 2.50 miles (4.02 km)
Ceiling: 100 feet AGL
Clouds: overcast cloud deck at 100 feet AGL
Weather: BR  (mist)

METAR text: KVBG 151233Z AUTO 33008KT 1 3/4SM BR OVC001 12/11 A2996 RMK AO2 SLP148
Conditions at: KVBG (VANDENBERG AFB , CA, US) observed 1233 UTC 15 June 2019
Temperature: 12.0°C (54°F)
Dewpoint: 11.0°C (52°F) [RH = 94%]
Pressure (altimeter): 29.96 inches Hg (1014.6 mb)
[Sea-level pressure: 1014.8 mb]
Winds: from the NNW (330 degrees) at 9 MPH (8 knots; 4.1 m/s)
Visibility: 1.75 miles (2.82 km)
Ceiling: 100 feet AGL
Clouds: overcast cloud deck at 100 feet AGL
Weather: BR  (mist)

METAR text: KVBG 151228Z AUTO 36008KT 1 1/2SM BR OVC001 12/11 A2996 RMK AO2 SLP148
Conditions at: KVBG (VANDENBERG AFB , CA, US) observed 1228 UTC 15 June 2019
Temperature: 12.0°C (54°F)
Dewpoint: 11.0°C (52°F) [RH = 94%]
Pressure (altimeter): 29.96 inches Hg (1014.6 mb)
[Sea-level pressure: 1014.8 mb]
Winds: from the N (360 degrees) at 9 MPH (8 knots; 4.1 m/s)
Visibility: 1.50 miles (2.41 km)
Ceiling: 100 feet AGL
Clouds: overcast cloud deck at 100 feet AGL
Weather: BR  (mist)

METAR text: KVBG 151223Z AUTO 36008KT 1 3/8SM BR OVC001 12/11 A2996 RMK AO2 VIS 1 3/8V2 1/2 SLP148
Conditions at: KVBG (VANDENBERG AFB , CA, US) observed 1223 UTC 15 June 2019
Temperature: 12.0°C (54°F)
Dewpoint: 11.0°C (52°F) [RH = 94%]
Pressure (altimeter): 29.96 inches Hg (1014.6 mb)
[Sea-level pressure: 1014.8 mb]
Winds: from the N (360 degrees) at 9 MPH (8 knots; 4.1 m/s)
Visibility: 1.38 miles (2.22 km)
Ceiling: 100 feet AGL
Clouds: overcast cloud deck at 100 feet AGL
Weather: BR  (mist)

METAR text: KVBG 151218Z AUTO 36007KT 1 7/8SM BR OVC001 11/11 A2996 RMK AO2 VIS 1 1/4V2 1/2 SLP148
Conditions at: KVBG (VANDENBERG AFB , CA, US) observed 1218 UTC 15 June 2019
Temperature: 11.0°C (52°F)
Dewpoint: 11.0°C (52°F) [RH = 100%]
Pressure (altimeter): 29.96 inches Hg (1014.6 mb)
[Sea-level pressure: 1014.8 mb]
Winds: from the N (360 degrees) at 8 MPH (7 knots; 3.6 m/s)
Visibility: 1.88 miles (3.03 km)
Ceiling: 100 feet AGL
Clouds: overcast cloud deck at 100 feet AGL
Weather: BR  (mist)

METAR text: KVBG 151213Z AUTO 34007KT 2 1/4SM BR OVC001 11/11 A2996 RMK AO2 VIS 7/8V2 1/4 SLP148
Conditions at: KVBG (VANDENBERG AFB , CA, US) observed 1213 UTC 15 June 2019
Temperature: 11.0°C (52°F)
Dewpoint: 11.0°C (52°F) [RH = 100%]
Pressure (altimeter): 29.96 inches Hg (1014.6 mb)
[Sea-level pressure: 1014.8 mb]
Winds: from the NNW (340 degrees) at 8 MPH (7 knots; 3.6 m/s)
Visibility: 2.25 miles (3.62 km)
Ceiling: 100 feet AGL
Clouds: overcast cloud deck at 100 feet AGL
Weather: BR  (mist)

METAR text: KVBG 151208Z AUTO 33008KT 1 1/8SM BR OVC001 11/11 A2996 RMK AO2 SLP148
Conditions at: KVBG (VANDENBERG AFB , CA, US) observed 1208 UTC 15 June 2019
Temperature: 11.0°C (52°F)
Dewpoint: 11.0°C (52°F) [RH = 100%]
Pressure (altimeter): 29.96 inches Hg (1014.6 mb)
[Sea-level pressure: 1014.8 mb]
Winds: from the NNW (330 degrees) at 9 MPH (8 knots; 4.1 m/s)
Visibility: 1.13 miles (1.82 km)
Ceiling: 100 feet AGL
Clouds: overcast cloud deck at 100 feet AGL
Weather: BR  (mist)

METAR text: KVBG 151203Z AUTO 36009KT 7/8SM R30/P6000FT BR VV001 12/11 A2995 RMK AO2 SLP145
Conditions at: KVBG (VANDENBERG AFB , CA, US) observed 1203 UTC 15 June 2019
Temperature: 12.0°C (54°F)
Dewpoint: 11.0°C (52°F) [RH = 94%]
Pressure (altimeter): 29.95 inches Hg (1014.3 mb)
[Sea-level pressure: 1014.5 mb]
Winds: from the N (360 degrees) at 10 MPH (9 knots; 4.6 m/s)
Visibility: 0.88 miles (1.42 km)
Ceiling: indefinite ceiling with vertical visibility of 100 feet AGL
Clouds: obscured sky
Weather: BR  (mist)

METAR text: KVBG 151158Z AUTO 35007KT 3/4SM R30/5500FT BR VV001 12/11 A2996 RMK AO2 VIS 3/4V1 5/8 VIS 2 3/4 RWY12 SLP148 T01150112 10129 20115 53001
Conditions at: KVBG (VANDENBERG AFB , CA, US) observed 1158 UTC 15 June 2019
Temperature: 11.5°C (53°F)
Dewpoint: 11.2°C (52°F) [RH = 98%]
Pressure (altimeter): 29.96 inches Hg (1014.6 mb)
[Sea-level pressure: 1014.8 mb]
Winds: from the N (350 degrees) at 8 MPH (7 knots; 3.6 m/s)
Visibility: 0.75 miles (1.21 km)
Ceiling: indefinite ceiling with vertical visibility of 100 feet AGL
Clouds: obscured sky
Weather: BR  (mist)

METAR text: KVBG 151153Z AUTO 35007KT 1SM R30/P6000FT BR VV001 12/11 A2995 RMK AO2 VIS 1V1 7/8 VIS 2 1/2 RWY12 SLP145
Conditions at: KVBG (VANDENBERG AFB , CA, US) observed 1153 UTC 15 June 2019
Temperature: 12.0°C (54°F)
Dewpoint: 11.0°C (52°F) [RH = 94%]
Pressure (altimeter): 29.95 inches Hg (1014.3 mb)
[Sea-level pressure: 1014.5 mb]
Winds: from the N (350 degrees) at 8 MPH (7 knots; 3.6 m/s)
Visibility: 1.00 miles (1.61 km)
Ceiling: indefinite ceiling with vertical visibility of 100 feet AGL
Clouds: obscured sky
Weather: BR  (mist)

METAR text: KVBG 151148Z AUTO 35006KT 1 7/8SM BR OVC001 12/11 A2995 RMK AO2 VIS 1 3/8V1 7/8 SLP145
Conditions at: KVBG (VANDENBERG AFB , CA, US) observed 1148 UTC 15 June 2019
Temperature: 12.0°C (54°F)
Dewpoint: 11.0°C (52°F) [RH = 94%]
Pressure (altimeter): 29.95 inches Hg (1014.3 mb)
[Sea-level pressure: 1014.5 mb]
Winds: from the N (350 degrees) at 7 MPH (6 knots; 3.1 m/s)
Visibility: 1.88 miles (3.03 km)
Ceiling: 100 feet AGL
Clouds: overcast cloud deck at 100 feet AGL
Weather: BR  (mist)

METAR text: KVBG 151143Z AUTO 36005KT 1 5/8SM BR OVC001 11/11 A2995 RMK AO2 SLP145
Conditions at: KVBG (VANDENBERG AFB , CA, US) observed 1143 UTC 15 June 2019
Temperature: 11.0°C (52°F)
Dewpoint: 11.0°C (52°F) [RH = 100%]
Pressure (altimeter): 29.95 inches Hg (1014.3 mb)
[Sea-level pressure: 1014.5 mb]
Winds: from the N (360 degrees) at 6 MPH (5 knots; 2.6 m/s)
Visibility: 1.63 miles (2.62 km)
Ceiling: 100 feet AGL
Clouds: overcast cloud deck at 100 feet AGL
Weather: BR  (mist)

METAR text: KVBG 151128Z AUTO 34006KT 1 3/8SM BR OVC001 12/11 A2995 RMK AO2 VIS 1 3/8V4 VIS 2 1/2 RWY12 SLP145
Conditions at: KVBG (VANDENBERG AFB , CA, US) observed 1128 UTC 15 June 2019
Temperature: 12.0°C (54°F)
Dewpoint: 11.0°C (52°F) [RH = 94%]
Pressure (altimeter): 29.95 inches Hg (1014.3 mb)
[Sea-level pressure: 1014.5 mb]
Winds: from the NNW (340 degrees) at 7 MPH (6 knots; 3.1 m/s)
Visibility: 1.38 miles (2.22 km)
Ceiling: 100 feet AGL
Clouds: overcast cloud deck at 100 feet AGL
Weather: BR  (mist)

METAR text: KVBG 151123Z AUTO 01007KT 2 1/4SM BR OVC001 12/11 A2995 RMK AO2 VIS 2 1/4V4 SLP145
Conditions at: KVBG (VANDENBERG AFB , CA, US) observed 1123 UTC 15 June 2019
Temperature: 12.0°C (54°F)
Dewpoint: 11.0°C (52°F) [RH = 94%]
Pressure (altimeter): 29.95 inches Hg (1014.3 mb)
[Sea-level pressure: 1014.5 mb]
Winds: from the N (10 degrees) at 8 MPH (7 knots; 3.6 m/s)
Visibility: 2.25 miles (3.62 km)
Ceiling: 100 feet AGL
Clouds: overcast cloud deck at 100 feet AGL
Weather: BR  (mist)

METAR text: KVBG 151108Z AUTO 34007KT 4SM BR OVC001 12/11 A2995 RMK AO2 SLP145
Conditions at: KVBG (VANDENBERG AFB , CA, US) observed 1108 UTC 15 June 2019
Temperature: 12.0°C (54°F)
Dewpoint: 11.0°C (52°F) [RH = 94%]
Pressure (altimeter): 29.95 inches Hg (1014.3 mb)
[Sea-level pressure: 1014.5 mb]
Winds: from the NNW (340 degrees) at 8 MPH (7 knots; 3.6 m/s)
Visibility: 4 miles ( 6 km)
Ceiling: 100 feet AGL
Clouds: overcast cloud deck at 100 feet AGL
Weather: BR  (mist)

METAR text: KVBG 151058Z AUTO 33007KT 5SM BR OVC002 12/11 A2995 RMK AO2 SLP145 T01180113
Conditions at: KVBG (VANDENBERG AFB , CA, US) observed 1058 UTC 15 June 2019
Temperature: 11.8°C (53°F)
Dewpoint: 11.3°C (52°F) [RH = 97%]
Pressure (altimeter): 29.95 inches Hg (1014.3 mb)
[Sea-level pressure: 1014.5 mb]
Winds: from the NNW (330 degrees) at 8 MPH (7 knots; 3.6 m/s)
Visibility: 5 miles ( 8 km)
Ceiling: 200 feet AGL
Clouds: overcast cloud deck at 200 feet AGL
Weather: BR  (mist)

METAR text: KVBG 151043Z AUTO 32007KT 9SM OVC003 12/11 A2995 RMK AO2 SLP145
Conditions at: KVBG (VANDENBERG AFB , CA, US) observed 1043 UTC 15 June 2019
Temperature: 12.0°C (54°F)
Dewpoint: 11.0°C (52°F) [RH = 94%]
Pressure (altimeter): 29.95 inches Hg (1014.3 mb)
[Sea-level pressure: 1014.5 mb]
Winds: from the NW (320 degrees) at 8 MPH (7 knots; 3.6 m/s)
Visibility: 9 miles (14 km)
Ceiling: 300 feet AGL
Clouds: overcast cloud deck at 300 feet AGL
Weather: automated observation with no human augmentation;
there may or may not be significant weather present at this time

METAR text: KVBG 151003Z AUTO 01004KT 10SM OVC004 12/11 A2995 RMK AO2 SLP145
Conditions at: KVBG (VANDENBERG AFB , CA, US) observed 1003 UTC 15 June 2019
Temperature: 12.0°C (54°F)
Dewpoint: 11.0°C (52°F) [RH = 94%]
Pressure (altimeter): 29.95 inches Hg (1014.3 mb)
[Sea-level pressure: 1014.5 mb]
Winds: from the N (10 degrees) at 5 MPH (4 knots; 2.1 m/s)
Visibility: 10 or more miles (16+ km)
Ceiling: 400 feet AGL
Clouds: overcast cloud deck at 400 feet AGL
Weather: automated observation with no human augmentation;
there may or may not be significant weather present at this time

METAR text: KVBG 150958Z AUTO 35003KT 10SM OVC003 12/11 A2995 RMK AO2 SLP145 T01190114
Conditions at: KVBG (VANDENBERG AFB , CA, US) observed 0958 UTC 15 June 2019
Temperature: 11.9°C (53°F)
Dewpoint: 11.4°C (53°F) [RH = 97%]
Pressure (altimeter): 29.95 inches Hg (1014.3 mb)
[Sea-level pressure: 1014.5 mb]
Winds: from the N (350 degrees) at 3 MPH (3 knots; 1.5 m/s)
Visibility: 10 or more miles (16+ km)
Ceiling: 300 feet AGL
Clouds: overcast cloud deck at 300 feet AGL
Weather: automated observation with no human augmentation;
there may or may not be significant weather present at this time

METAR text: KVBG 150938Z AUTO 33005KT 10SM OVC003 12/11 A2994 RMK AO2 SLP141
Conditions at: KVBG (VANDENBERG AFB , CA, US) observed 0938 UTC 15 June 2019
Temperature: 12.0°C (54°F)
Dewpoint: 11.0°C (52°F) [RH = 94%]
Pressure (altimeter): 29.94 inches Hg (1014.0 mb)
[Sea-level pressure: 1014.1 mb]
Winds: from the NNW (330 degrees) at 6 MPH (5 knots; 2.6 m/s)
Visibility: 10 or more miles (16+ km)
Ceiling: 300 feet AGL
Clouds: overcast cloud deck at 300 feet AGL
Weather: automated observation with no human augmentation;
there may or may not be significant weather present at this time

METAR text: KVBG 150918Z AUTO 36006KT 10SM OVC004 12/12 A2995 RMK AO2 SLP145
Conditions at: KVBG (VANDENBERG AFB , CA, US) observed 0918 UTC 15 June 2019
Temperature: 12.0°C (54°F)
Dewpoint: 12.0°C (54°F) [RH = 100%]
Pressure (altimeter): 29.95 inches Hg (1014.3 mb)
[Sea-level pressure: 1014.5 mb]
Winds: from the N (360 degrees) at 7 MPH (6 knots; 3.1 m/s)
Visibility: 10 or more miles (16+ km)
Ceiling: 400 feet AGL
Clouds: overcast cloud deck at 400 feet AGL
Weather: automated observation with no human augmentation;
there may or may not be significant weather present at this time

METAR text: KVBG 150858Z AUTO 36006KT 10SM OVC005 13/12 A2995 RMK AO2 SLP145 T01250115 57012
Conditions at: KVBG (VANDENBERG AFB , CA, US) observed 0858 UTC 15 June 2019
Temperature: 12.5°C (54°F)
Dewpoint: 11.5°C (53°F) [RH = 94%]
Pressure (altimeter): 29.95 inches Hg (1014.3 mb)
[Sea-level pressure: 1014.5 mb]
Winds: from the N (360 degrees) at 7 MPH (6 knots; 3.1 m/s)
Visibility: 10 or more miles (16+ km)
Ceiling: 500 feet AGL
Clouds: overcast cloud deck at 500 feet AGL
Weather: automated observation with no human augmentation;
there may or may not be significant weather present at this time

METAR text: KVBG 150758Z AUTO 36006KT 10SM OVC005 13/12 A2996 RMK AO2 SLP148 T01260117 401650121
Conditions at: KVBG (VANDENBERG AFB , CA, US) observed 0758 UTC 15 June 2019
Temperature: 12.6°C (55°F)
Dewpoint: 11.7°C (53°F) [RH = 94%]
Pressure (altimeter): 29.96 inches Hg (1014.6 mb)
[Sea-level pressure: 1014.8 mb]
Winds: from the N (360 degrees) at 7 MPH (6 knots; 3.1 m/s)
Visibility: 10 or more miles (16+ km)
Ceiling: 500 feet AGL
Clouds: overcast cloud deck at 500 feet AGL
Weather: automated observation with no human augmentation;
there may or may not be significant weather present at this time

METAR text: KVBG 150738Z AUTO 02007KT 10SM OVC005 13/12 A2996 RMK AO2 SLP148
Conditions at: KVBG (VANDENBERG AFB , CA, US) observed 0738 UTC 15 June 2019
Temperature: 13.0°C (55°F)
Dewpoint: 12.0°C (54°F) [RH = 94%]
Pressure (altimeter): 29.96 inches Hg (1014.6 mb)
[Sea-level pressure: 1014.8 mb]
Winds: from the NNE (20 degrees) at 8 MPH (7 knots; 3.6 m/s)
Visibility: 10 or more miles (16+ km)
Ceiling: 500 feet AGL
Clouds: overcast cloud deck at 500 feet AGL
Weather: automated observation with no human augmentation;
there may or may not be significant weather present at this time

METAR text: KVBG 150658Z AUTO 35007KT 10SM OVC006 13/12 A2997 RMK AO2 SLP151 T01260115
Conditions at: KVBG (VANDENBERG AFB , CA, US) observed 0658 UTC 15 June 2019
Temperature: 12.6°C (55°F)
Dewpoint: 11.5°C (53°F) [RH = 93%]
Pressure (altimeter): 29.97 inches Hg (1015.0 mb)
[Sea-level pressure: 1015.1 mb]
Winds: from the N (350 degrees) at 8 MPH (7 knots; 3.6 m/s)
Visibility: 10 or more miles (16+ km)
Ceiling: 600 feet AGL
Clouds: overcast cloud deck at 600 feet AGL
Weather: automated observation with no human augmentation;
there may or may not be significant weather present at this time

METAR text: KVBG 150638Z AUTO 36008KT 10SM OVC006 13/12 A2998 RMK AO2 SLP155
Conditions at: KVBG (VANDENBERG AFB , CA, US) observed 0638 UTC 15 June 2019
Temperature: 13.0°C (55°F)
Dewpoint: 12.0°C (54°F) [RH = 94%]
Pressure (altimeter): 29.98 inches Hg (1015.3 mb)
[Sea-level pressure: 1015.5 mb]
Winds: from the N (360 degrees) at 9 MPH (8 knots; 4.1 m/s)
Visibility: 10 or more miles (16+ km)
Ceiling: 600 feet AGL
Clouds: overcast cloud deck at 600 feet AGL
Weather: automated observation with no human augmentation;
there may or may not be significant weather present at this time

METAR text: KVBG 150558Z AUTO 36009KT 10SM OVC007 13/12 A2999 RMK AO2 SLP158 T01290115 10151 20126 51010
Conditions at: KVBG (VANDENBERG AFB , CA, US) observed 0558 UTC 15 June 2019
Temperature: 12.9°C (55°F)
Dewpoint: 11.5°C (53°F) [RH = 91%]
Pressure (altimeter): 29.99 inches Hg (1015.7 mb)
[Sea-level pressure: 1015.8 mb]
Winds: from the N (360 degrees) at 10 MPH (9 knots; 4.6 m/s)
Visibility: 10 or more miles (16+ km)
Ceiling: 700 feet AGL
Clouds: overcast cloud deck at 700 feet AGL
Weather: automated observation with no human augmentation;
there may or may not be significant weather present at this time

METAR text: KVBG 150523Z AUTO 36011KT 10SM OVC007 13/12 A2999 RMK AO2 SLP158
Conditions at: KVBG (VANDENBERG AFB , CA, US) observed 0523 UTC 15 June 2019
Temperature: 13.0°C (55°F)
Dewpoint: 12.0°C (54°F) [RH = 94%]
Pressure (altimeter): 29.99 inches Hg (1015.7 mb)
[Sea-level pressure: 1015.8 mb]
Winds: from the N (360 degrees) at 13 MPH (11 knots; 5.7 m/s)
Visibility: 10 or more miles (16+ km)
Ceiling: 700 feet AGL
Clouds: overcast cloud deck at 700 feet AGL
Weather: automated observation with no human augmentation;
there may or may not be significant weather present at this time

METAR text: KVBG 150513Z AUTO 35011KT 10SM OVC006 13/12 A2999 RMK AO2 SLP158
Conditions at: KVBG (VANDENBERG AFB , CA, US) observed 0513 UTC 15 June 2019
Temperature: 13.0°C (55°F)
Dewpoint: 12.0°C (54°F) [RH = 94%]
Pressure (altimeter): 29.99 inches Hg (1015.7 mb)
[Sea-level pressure: 1015.8 mb]
Winds: from the N (350 degrees) at 13 MPH (11 knots; 5.7 m/s)
Visibility: 10 or more miles (16+ km)
Ceiling: 600 feet AGL
Clouds: overcast cloud deck at 600 feet AGL
Weather: automated observation with no human augmentation;
there may or may not be significant weather present at this time

METAR text: KVBG 150458Z AUTO 36009KT 10SM OVC007 13/12 A2999 RMK AO2 SLP158 T01290115
Conditions at: KVBG (VANDENBERG AFB , CA, US) observed 0458 UTC 15 June 2019
Temperature: 12.9°C (55°F)
Dewpoint: 11.5°C (53°F) [RH = 91%]
Pressure (altimeter): 29.99 inches Hg (1015.7 mb)
[Sea-level pressure: 1015.8 mb]
Winds: from the N (360 degrees) at 10 MPH (9 knots; 4.6 m/s)
Visibility: 10 or more miles (16+ km)
Ceiling: 700 feet AGL
Clouds: overcast cloud deck at 700 feet AGL
Weather: automated observation with no human augmentation;
there may or may not be significant weather present at this time